createdAt,value
2023-01-23T00:01:43.702Z,2.90
2023-01-23T00:04:31.059Z,4.27
2023-01-23T00:07:18.439Z,1.80
2023-01-23T00:10:06.090Z,3.00
2023-01-23T00:12:54.352Z,4.20
2023-01-23T00:15:41.710Z,3.47
2023-01-23T00:18:29.145Z,1.90
2023-01-23T00:21:18.112Z,2.77
2023-01-23T00:24:05.705Z,4.53
2023-01-23T00:26:53.174Z,2.57
2023-01-23T00:29:40.515Z,2.50
2023-01-23T00:32:28.633Z,4.10
2023-01-23T00:35:16.066Z,4.20
2023-01-23T00:38:03.543Z,3.57
2023-01-23T00:40:50.950Z,4.03
2023-01-23T00:43:38.319Z,1.67
2023-01-23T00:46:25.726Z,3.67
2023-01-23T00:49:13.190Z,3.20
2023-01-23T00:52:00.563Z,2.50
2023-01-23T00:54:47.949Z,3.43
2023-01-23T00:57:35.293Z,4.93
2023-01-23T01:00:22.665Z,3.23
2023-01-23T01:03:10.126Z,2.10
2023-01-23T01:05:57.649Z,5.17
2023-01-23T01:08:45.020Z,2.57
2023-01-23T01:11:32.434Z,4.53
2023-01-23T01:14:19.815Z,3.17
2023-01-23T01:17:07.203Z,5.00
2023-01-23T01:19:54.552Z,2.13
2023-01-23T01:22:41.929Z,2.70
2023-01-23T01:25:31.051Z,4.10
2023-01-23T01:28:18.621Z,2.40
2023-01-23T01:31:07.612Z,2.10
2023-01-23T01:33:55.124Z,4.03
2023-01-23T01:36:42.457Z,3.27
2023-01-23T01:39:29.805Z,2.10
2023-01-23T01:42:17.140Z,3.87
2023-01-23T01:45:04.591Z,3.17
2023-01-23T01:47:52.030Z,3.07
2023-01-23T01:50:39.419Z,2.57
2023-01-23T01:53:27.881Z,2.10
2023-01-23T01:56:15.476Z,3.27
2023-01-23T01:59:03.685Z,3.40
2023-01-23T02:01:54.321Z,2.97
2023-01-23T02:04:44.507Z,2.73
2023-01-23T02:07:37.977Z,3.27
2023-01-23T02:10:25.462Z,4.73
2023-01-23T02:13:28.319Z,3.80
2023-01-23T02:16:18.507Z,4.40
2023-01-23T02:19:08.922Z,2.27
2023-01-23T02:22:04.353Z,3.50
2023-01-23T02:24:59.641Z,4.07
2023-01-23T02:27:46.996Z,3.00
2023-01-23T02:30:34.365Z,2.23
2023-01-23T02:33:24.849Z,4.20
2023-01-23T02:36:12.175Z,2.73
2023-01-23T02:39:07.721Z,3.00
2023-01-23T02:41:56.097Z,2.80
2023-01-23T02:44:44.209Z,2.67
2023-01-23T02:47:33.680Z,2.50
2023-01-23T02:50:21.290Z,2.53
2023-01-23T02:53:08.878Z,3.27
2023-01-23T02:55:57.017Z,3.30
2023-01-23T02:59:03.228Z,5.67
2023-01-23T03:01:51.361Z,4.63
2023-01-23T03:04:38.797Z,4.50
2023-01-23T03:07:26.188Z,2.90
2023-01-23T03:10:13.648Z,3.30
2023-01-23T03:13:07.133Z,3.10
2023-01-23T03:15:54.557Z,3.57
2023-01-23T03:18:53.543Z,3.10
2023-01-23T03:21:41.824Z,2.73
2023-01-23T03:24:29.215Z,4.17
2023-01-23T03:27:16.748Z,6.73
2023-01-23T03:30:13.930Z,5.97
2023-01-23T03:33:01.751Z,3.67
2023-01-23T03:35:49.809Z,7.00
2023-01-23T03:38:37.525Z,5.73
2023-01-23T03:41:24.880Z,5.53
2023-01-23T03:44:12.907Z,5.93
2023-01-23T03:47:00.425Z,5.30
2023-01-23T03:49:48.051Z,6.33
2023-01-23T03:52:35.568Z,6.43
2023-01-23T03:55:22.908Z,5.87
2023-01-23T03:58:10.258Z,5.97
2023-01-23T04:00:57.771Z,7.80
2023-01-23T04:03:45.133Z,6.73
2023-01-23T04:06:32.646Z,6.57
2023-01-23T04:09:20.066Z,5.90
2023-01-23T04:12:07.440Z,9.07
2023-01-23T04:14:54.811Z,6.90
2023-01-23T04:17:42.602Z,8.73
2023-01-23T04:20:30.040Z,6.07
2023-01-23T04:23:17.596Z,6.33
2023-01-23T04:26:05.034Z,7.67
2023-01-23T04:28:52.428Z,6.83
2023-01-23T04:31:39.931Z,6.37
2023-01-23T04:34:27.350Z,8.20
2023-01-23T04:37:14.738Z,6.70
2023-01-23T04:40:02.142Z,9.30
2023-01-23T04:42:49.483Z,7.57
2023-01-23T04:45:37.229Z,8.27
2023-01-23T04:48:25.374Z,7.50
2023-01-23T04:51:12.867Z,6.27
2023-01-23T04:54:00.245Z,6.40
2023-01-23T04:56:48.484Z,6.60
2023-01-23T04:59:35.859Z,8.70
2023-01-23T05:02:23.382Z,7.80
2023-01-23T05:05:10.826Z,5.43
2023-01-23T05:07:58.168Z,5.07
2023-01-23T05:10:45.690Z,5.17
2023-01-23T05:13:33.069Z,7.38
2023-01-23T05:16:20.492Z,6.63
2023-01-23T05:19:07.872Z,6.30
2023-01-23T05:21:55.215Z,6.63
2023-01-23T05:24:42.569Z,5.90
2023-01-23T05:27:29.963Z,6.90
2023-01-23T05:30:18.162Z,5.00
2023-01-23T05:33:05.649Z,6.90
2023-01-23T05:35:52.997Z,5.87
2023-01-23T05:38:40.383Z,6.80
2023-01-23T05:41:27.768Z,6.57
2023-01-23T05:44:15.186Z,6.90
2023-01-23T05:47:02.535Z,5.93
2023-01-23T05:49:49.869Z,5.73
2023-01-23T05:52:37.524Z,8.10
2023-01-23T05:55:24.884Z,6.63
2023-01-23T05:58:14.412Z,5.37
2023-01-23T06:01:06.192Z,6.50
2023-01-23T06:03:53.612Z,6.30
2023-01-23T06:06:40.992Z,5.70
2023-01-23T06:09:28.346Z,6.07
2023-01-23T06:12:15.677Z,7.17
2023-01-23T06:15:03.023Z,5.97
2023-01-23T06:17:50.444Z,7.03
2023-01-23T06:20:37.776Z,9.10
2023-01-23T06:23:25.161Z,8.27
2023-01-23T06:26:12.998Z,7.00
2023-01-23T06:29:00.420Z,8.83
2023-01-23T06:31:47.847Z,6.93
2023-01-23T06:34:36.597Z,9.63
2023-01-23T06:37:24.004Z,7.93
2023-01-23T06:40:14.533Z,8.27
2023-01-23T06:43:02.206Z,6.53
2023-01-23T06:45:49.664Z,7.53
2023-01-23T06:48:37.484Z,8.23
2023-01-23T06:51:24.937Z,9.20
2023-01-23T06:54:12.384Z,6.80
2023-01-23T06:56:59.761Z,11.90
2023-01-23T06:59:47.465Z,7.20
2023-01-23T07:02:34.904Z,10.57
2023-01-23T07:05:22.321Z,8.17
2023-01-23T07:08:10.113Z,8.07
2023-01-23T07:10:57.505Z,7.53
2023-01-23T07:13:44.919Z,9.17
2023-01-23T07:16:32.872Z,10.13
2023-01-23T07:19:20.331Z,8.47
2023-01-23T07:22:07.680Z,8.97
2023-01-23T07:24:55.033Z,8.90
2023-01-23T07:27:42.409Z,7.57
2023-01-23T07:30:29.951Z,9.30
2023-01-23T07:33:17.377Z,9.73
2023-01-23T07:36:08.283Z,8.77
2023-01-23T07:38:59.047Z,9.77
2023-01-23T07:41:46.603Z,10.33
2023-01-23T07:44:34.106Z,9.90
2023-01-23T07:47:21.501Z,12.13
2023-01-23T07:50:10.284Z,10.37
2023-01-23T07:52:57.652Z,10.93
2023-01-23T07:55:45.343Z,10.20
2023-01-23T07:58:33.086Z,10.67
2023-01-23T08:01:20.522Z,8.83
2023-01-23T08:04:07.920Z,10.97
2023-01-23T08:06:55.283Z,11.63
2023-01-23T08:09:42.677Z,9.80
2023-01-23T08:12:30.287Z,9.67
2023-01-23T08:15:17.731Z,10.60
2023-01-23T08:18:05.360Z,9.60
2023-01-23T08:20:53.555Z,11.20
2023-01-23T08:23:41.168Z,11.67
2023-01-23T08:26:28.573Z,10.87
2023-01-23T08:29:15.956Z,13.13
2023-01-23T08:32:03.422Z,12.23
2023-01-23T08:34:50.892Z,11.10
2023-01-23T08:37:38.336Z,12.97
2023-01-23T08:40:25.748Z,13.70
2023-01-23T08:43:14.054Z,13.80
2023-01-23T08:46:01.915Z,12.00
2023-01-23T08:48:49.295Z,12.07
2023-01-23T08:51:37.244Z,11.43
2023-01-23T08:54:24.623Z,11.87
2023-01-23T08:57:12.052Z,10.23
2023-01-23T09:00:00.180Z,12.13
2023-01-23T09:02:48.781Z,11.97
2023-01-23T09:05:36.732Z,12.10
2023-01-23T09:08:25.378Z,14.13
2023-01-23T09:11:14.038Z,11.97
2023-01-23T09:14:04.305Z,14.60
2023-01-23T09:16:54.134Z,15.47
2023-01-23T09:19:44.434Z,13.20
2023-01-23T09:22:32.337Z,14.13
2023-01-23T09:25:19.828Z,12.87
2023-01-23T09:28:07.315Z,11.80
2023-01-23T09:30:57.353Z,13.67
2023-01-23T09:33:45.755Z,13.13
2023-01-23T09:36:42.819Z,16.20
2023-01-23T09:39:32.409Z,12.30
2023-01-23T09:42:24.039Z,13.10
2023-01-23T09:45:12.963Z,16.63
2023-01-23T09:48:09.579Z,13.90
2023-01-23T09:50:59.831Z,14.23
2023-01-23T09:53:47.264Z,17.23
2023-01-23T09:56:39.023Z,13.97
2023-01-23T09:59:30.338Z,16.13
2023-01-23T10:02:20.220Z,12.67
2023-01-23T10:05:14.452Z,14.90
2023-01-23T10:08:19.148Z,14.43
2023-01-23T10:11:14.882Z,14.23
2023-01-23T10:14:12.022Z,15.63
2023-01-23T10:17:05.904Z,14.67
2023-01-23T10:19:59.224Z,15.70
2023-01-23T10:22:52.863Z,16.43
2023-01-23T10:25:41.509Z,17.43
2023-01-23T10:28:35.570Z,18.67
2023-01-23T10:31:41.158Z,20.10
2023-01-23T10:34:35.109Z,20.77
2023-01-23T10:37:31.864Z,19.17
2023-01-23T10:40:41.105Z,20.10
2023-01-23T10:43:28.460Z,21.17
2023-01-23T10:46:21.477Z,21.73
2023-01-23T10:49:08.956Z,27.10
2023-01-23T10:51:56.443Z,22.00
2023-01-23T10:54:47.336Z,19.73
2023-01-23T10:57:44.994Z,22.57
2023-01-23T11:00:37.025Z,22.63
2023-01-23T11:03:35.666Z,18.47
2023-01-23T11:06:25.908Z,21.23
2023-01-23T11:09:20.333Z,19.07
2023-01-23T11:12:14.789Z,26.53
2023-01-23T11:15:22.034Z,21.63
2023-01-23T11:18:26.795Z,25.30
2023-01-23T11:21:31.934Z,21.97
2023-01-23T11:24:30.635Z,18.93
2023-01-23T11:27:31.742Z,24.10
2023-01-23T11:30:41.156Z,23.33
2023-01-23T11:33:55.692Z,23.93
2023-01-23T11:36:46.954Z,21.87
2023-01-23T11:39:41.507Z,22.67
2023-01-23T11:42:30.268Z,24.70
2023-01-23T11:45:30.102Z,20.30
2023-01-23T11:48:21.819Z,21.30
2023-01-23T11:51:16.389Z,24.80
2023-01-23T11:54:11.671Z,21.93
2023-01-23T11:56:59.047Z,23.13
2023-01-23T11:59:53.723Z,20.00
2023-01-23T12:02:41.226Z,22.57
2023-01-23T12:05:46.955Z,21.30
2023-01-23T12:08:53.528Z,22.40
2023-01-23T12:11:46.925Z,19.70
2023-01-23T12:14:37.376Z,21.97
2023-01-23T12:17:40.338Z,23.00
2023-01-23T12:20:33.846Z,21.87
2023-01-23T12:23:27.414Z,22.07
2023-01-23T12:26:18.648Z,20.73
2023-01-23T12:29:09.061Z,21.93
2023-01-23T12:31:56.971Z,20.47
2023-01-23T12:35:02.263Z,22.67
2023-01-23T12:38:04.669Z,22.07
2023-01-23T12:41:07.990Z,20.00
2023-01-23T12:44:00.177Z,23.67
2023-01-23T12:46:52.831Z,20.17
2023-01-23T12:50:04.427Z,21.40
2023-01-23T12:52:55.757Z,22.63
2023-01-23T12:56:06.668Z,27.03
2023-01-23T12:58:54.182Z,22.80
2023-01-23T13:01:50.948Z,23.20
2023-01-23T13:04:38.383Z,21.00
2023-01-23T13:07:44.941Z,19.37
2023-01-23T13:10:57.013Z,21.07
2023-01-23T13:13:46.095Z,19.57
2023-01-23T13:16:34.135Z,19.33
2023-01-23T13:19:45.109Z,22.67
2023-01-23T13:22:38.428Z,20.57
2023-01-23T13:25:25.842Z,21.90
2023-01-23T13:28:27.713Z,23.43
2023-01-23T13:31:35.246Z,23.30
2023-01-23T13:34:22.647Z,22.23
2023-01-23T13:37:39.511Z,24.80
2023-01-23T13:40:26.914Z,23.07
2023-01-23T13:43:33.125Z,28.50
2023-01-23T13:46:30.944Z,30.57
2023-01-23T14:25:15.631Z,55.67
2023-01-23T14:28:07.346Z,54.43
2023-01-23T14:30:56.833Z,38.87
2023-01-23T14:33:45.653Z,27.60
2023-01-23T14:36:34.826Z,36.60
2023-01-23T14:39:23.736Z,30.93
2023-01-23T14:42:23.710Z,27.13
2023-01-23T14:45:12.697Z,25.70
2023-01-23T14:48:06.073Z,30.37
2023-01-23T14:51:07.096Z,28.97
2023-01-23T14:53:55.981Z,26.83
2023-01-23T14:56:44.601Z,26.10
2023-01-23T14:59:34.406Z,29.57
2023-01-23T15:02:33.769Z,24.37
2023-01-23T15:05:23.566Z,26.87
2023-01-23T15:08:18.155Z,26.70
2023-01-23T15:11:08.016Z,26.60
2023-01-23T15:14:01.407Z,32.07
2023-01-23T15:16:51.237Z,25.43
2023-01-23T15:19:39.360Z,29.47
2023-01-23T15:22:28.139Z,38.83
2023-01-23T15:25:37.618Z,45.20
2023-01-23T15:28:39.688Z,49.13
2023-01-23T15:31:29.917Z,52.13
2023-01-23T15:34:17.412Z,45.30
2023-01-23T15:37:20.867Z,45.37
2023-01-23T15:40:19.044Z,35.37
2023-01-23T15:43:10.313Z,33.57
2023-01-23T15:45:57.708Z,40.17
2023-01-23T15:48:45.089Z,36.60
2023-01-23T15:51:32.455Z,38.83
2023-01-23T15:54:25.262Z,40.87
2023-01-23T15:57:13.152Z,38.40
2023-01-23T16:00:01.748Z,31.93
2023-01-23T16:02:56.196Z,33.13
2023-01-23T16:05:44.384Z,32.27
2023-01-23T16:08:31.936Z,35.30
2023-01-23T16:11:19.716Z,30.93
2023-01-23T16:14:07.082Z,34.53
2023-01-23T16:16:56.591Z,38.50
2023-01-23T16:19:44.200Z,43.10
2023-01-23T16:22:31.759Z,48.23
2023-01-23T16:25:41.883Z,43.63
2023-01-23T16:28:32.390Z,45.37
2023-01-23T16:31:20.022Z,44.37
2023-01-23T16:34:07.755Z,46.83
2023-01-23T16:36:56.771Z,38.33
2023-01-23T16:39:45.577Z,30.80
2023-01-23T16:42:33.317Z,34.17
2023-01-23T16:45:24.727Z,31.13
2023-01-23T16:48:21.694Z,29.63
2023-01-23T16:51:21.621Z,32.90
2023-01-23T16:54:18.874Z,26.77
2023-01-23T16:57:06.469Z,34.27
2023-01-23T16:59:56.250Z,27.53
2023-01-23T17:02:45.830Z,27.87
2023-01-23T17:05:33.189Z,29.87
2023-01-23T17:08:21.619Z,29.80
2023-01-23T17:11:10.924Z,32.77
2023-01-23T17:14:10.929Z,33.70
2023-01-23T17:17:11.331Z,30.67
2023-01-23T17:19:59.093Z,32.00
2023-01-23T17:22:46.866Z,33.03
2023-01-23T17:25:36.087Z,33.43
2023-01-23T17:28:26.461Z,38.50
2023-01-23T17:31:19.652Z,36.03
2023-01-23T17:34:08.099Z,31.80
2023-01-23T17:36:56.755Z,38.63
2023-01-23T17:39:44.267Z,33.70
2023-01-23T17:42:31.772Z,37.00
2023-01-23T17:45:20.725Z,40.77
2023-01-23T17:48:15.785Z,37.87
2023-01-23T17:51:03.224Z,40.03
2023-01-23T17:53:51.230Z,34.03
2023-01-23T17:56:38.590Z,31.37
2023-01-23T17:59:25.947Z,34.30
2023-01-23T18:02:25.151Z,29.37
2023-01-23T18:05:13.672Z,33.47
2023-01-23T18:08:01.121Z,32.70
2023-01-23T18:10:49.873Z,30.30
2023-01-23T18:14:07.916Z,29.43
2023-01-23T18:16:55.681Z,28.70
2023-01-23T18:19:43.247Z,28.80
2023-01-23T18:22:30.762Z,31.87
2023-01-23T18:25:19.361Z,29.40
2023-01-23T18:28:09.155Z,27.87
2023-01-23T18:31:11.352Z,31.60
2023-01-23T18:34:05.642Z,30.33
2023-01-23T18:37:03.087Z,30.03
2023-01-23T18:39:56.440Z,31.63
2023-01-23T18:42:59.285Z,31.53
2023-01-23T18:45:46.926Z,31.93
2023-01-23T18:48:35.461Z,27.17
2023-01-23T18:51:38.935Z,24.43
2023-01-23T18:54:26.405Z,28.67
2023-01-23T18:57:23.295Z,27.50
2023-01-23T19:00:14.741Z,23.80
2023-01-23T19:03:10.959Z,27.63
2023-01-23T19:05:58.444Z,25.70
2023-01-23T19:08:47.876Z,28.10
2023-01-23T19:11:35.224Z,23.80
2023-01-23T19:14:25.470Z,23.53
2023-01-23T19:17:32.667Z,23.53
2023-01-23T19:20:29.066Z,26.20
2023-01-23T19:23:16.640Z,24.63
2023-01-23T19:26:04.355Z,22.60
2023-01-23T19:28:51.859Z,21.60
2023-01-23T19:31:39.901Z,22.07
2023-01-23T19:34:27.310Z,25.37
2023-01-23T19:37:15.113Z,25.07
2023-01-23T19:40:02.599Z,23.40
2023-01-23T19:42:58.701Z,21.90
2023-01-23T19:45:52.976Z,25.67
2023-01-23T19:48:40.353Z,24.80
2023-01-23T19:51:28.232Z,27.77
2023-01-23T19:54:15.911Z,25.83
2023-01-23T19:57:03.355Z,27.20
2023-01-23T19:59:50.715Z,27.07
2023-01-23T20:02:38.147Z,27.67
2023-01-23T20:05:26.081Z,22.50
2023-01-23T20:08:13.463Z,25.57
2023-01-23T20:11:00.850Z,23.80
2023-01-23T20:13:48.273Z,24.90
2023-01-23T20:16:40.021Z,20.77
2023-01-23T20:19:27.442Z,23.50
2023-01-23T20:22:15.079Z,23.10
2023-01-23T20:25:02.488Z,23.33
2023-01-23T20:27:49.908Z,27.67
2023-01-23T20:30:37.298Z,22.73
2023-01-23T20:33:25.213Z,23.20
2023-01-23T20:36:13.465Z,18.77
2023-01-23T20:39:00.810Z,27.93
2023-01-23T20:41:48.206Z,25.60
2023-01-23T20:44:35.611Z,27.63
2023-01-23T20:47:23.017Z,26.23
2023-01-23T20:50:10.767Z,22.50
2023-01-23T20:53:16.802Z,23.97
2023-01-23T20:56:04.262Z,22.27
2023-01-23T20:59:10.245Z,21.10
2023-01-23T21:02:16.512Z,20.13
2023-01-23T21:05:03.907Z,24.47
2023-01-23T21:07:51.361Z,26.47
2023-01-23T21:10:38.726Z,24.10
2023-01-23T21:13:26.138Z,22.17
2023-01-23T21:16:14.847Z,25.40
2023-01-23T21:19:02.591Z,27.13
2023-01-23T21:21:49.980Z,23.17
2023-01-23T21:24:37.683Z,27.17
2023-01-23T21:27:25.989Z,21.13
2023-01-23T21:30:13.643Z,29.20
2023-01-23T21:33:01.002Z,26.63
2023-01-23T21:35:49.404Z,26.73
2023-01-23T21:38:36.825Z,24.07
2023-01-23T21:41:24.570Z,22.30
2023-01-23T21:44:12.529Z,22.93
2023-01-23T21:46:59.860Z,21.63
2023-01-23T21:49:47.269Z,18.40
2023-01-23T21:52:34.630Z,21.83
2023-01-23T21:55:22.405Z,22.20
2023-01-23T21:58:09.972Z,21.10
2023-01-23T22:01:16.639Z,19.63
2023-01-23T22:04:09.126Z,22.80
2023-01-23T22:06:58.517Z,23.90
2023-01-23T22:09:45.888Z,20.53
2023-01-23T22:12:33.276Z,19.57
2023-01-23T22:15:21.156Z,19.50
2023-01-23T22:18:08.667Z,18.70
2023-01-23T22:20:57.158Z,19.30
2023-01-23T22:23:44.679Z,20.87
2023-01-23T22:26:32.093Z,24.67
2023-01-23T22:29:19.587Z,19.63
2023-01-23T22:32:07.061Z,22.63
2023-01-23T22:34:54.659Z,21.80
2023-01-23T22:37:43.464Z,19.80
2023-01-23T22:40:30.834Z,19.83
2023-01-23T22:43:18.219Z,21.33
2023-01-23T22:46:06.458Z,21.70
2023-01-23T22:48:53.935Z,21.40
2023-01-23T22:51:41.351Z,24.60
2023-01-23T22:54:28.870Z,24.47
2023-01-23T22:57:16.252Z,25.10
2023-01-23T23:00:08.592Z,22.67
2023-01-23T23:02:55.947Z,24.80
2023-01-23T23:05:43.299Z,21.17
2023-01-23T23:08:30.883Z,21.03
2023-01-23T23:11:20.006Z,19.40
2023-01-23T23:14:07.445Z,22.07
2023-01-23T23:16:54.810Z,22.03
2023-01-23T23:19:42.176Z,20.73
2023-01-23T23:22:29.549Z,22.83
2023-01-23T23:25:17.102Z,20.37
2023-01-23T23:28:05.082Z,22.07
2023-01-23T23:30:52.562Z,20.03
2023-01-23T23:33:39.920Z,18.73
2023-01-23T23:36:27.342Z,21.63
2023-01-23T23:39:14.971Z,19.23
2023-01-23T23:42:02.377Z,19.53
2023-01-23T23:44:49.761Z,19.03
2023-01-23T23:47:37.131Z,20.23
2023-01-23T23:50:24.693Z,18.47
2023-01-23T23:53:12.049Z,22.97
2023-01-23T23:55:59.439Z,19.57
2023-01-23T23:58:46.795Z,16.03
